KACV

California Redwood Coast-Humboldt County Airport

Arcata/Eureka, California, USA
METAR KACV 211253Z AUTO 09003KT 8SM SCT048 08/07 A2997 RMK AO2 SLP154 T00780072
Observed Flight Rules
Jul-21 @ 12:53 UTC (56 minutes ago) Visual Flight Rules
Wind Visibility Clouds
90° at 3 knots 8 miles
  • Scattered at 4,800' AGL
Temperatures Readings
Current 8°C / 46°F
Dewpoint 7°C / 45°F
Humidity 93%
Altimeter 29.97" Hg
Pressure 1015.4 hPa
Elevation 67
METAR KACV 211253Z AUTO 09003KT 8SM SCT048 08/07 A2997 RMK AO2 SLP154 T00780072
Observed Flight Rules
Jul-21 @ 12:53 UTC
(56 minutes ago)
VFR
Wind Visibility
90° at 3 knots 8 miles
Clouds
  • Scattered at 4,800' AGL
Temperature Dewpoint
8°C / 46°F 7°C / 45°F
Humidity Altimeter Pressure
93% 29.97" Hg 1015.4 hPa